sensor_id;sensor_type;location;lat;lon;timestamp;pressure;altitude;pressure_sealevel;temperature;humidity
35758;BME280;21879;50.110;18.900;2023-04-22T00:00:30;98554.20;;;9.34;51.82
35758;BME280;21879;50.110;18.900;2023-04-22T00:10:56;98552.90;;;9.23;51.62
35758;BME280;21879;50.110;18.900;2023-04-22T00:21:22;98554.66;;;9.15;51.62
35758;BME280;21879;50.110;18.900;2023-04-22T00:31:48;98553.31;;;9.11;51.61
35758;BME280;21879;50.110;18.900;2023-04-22T00:42:16;98547.83;;;9.00;51.80
35758;BME280;21879;50.110;18.900;2023-04-22T00:52:41;98547.41;;;8.80;51.80
35758;BME280;21879;50.110;18.900;2023-04-22T01:03:08;98559.98;;;8.57;51.57
35758;BME280;21879;50.110;18.900;2023-04-22T01:13:34;98560.58;;;8.26;51.68
35758;BME280;21879;50.110;18.900;2023-04-22T01:24:02;98566.11;;;8.29;52.14
35758;BME280;21879;50.110;18.900;2023-04-22T01:34:28;98569.77;;;8.24;52.33
35758;BME280;21879;50.110;18.900;2023-04-22T01:44:54;98567.02;;;8.10;52.55
35758;BME280;21879;50.110;18.900;2023-04-22T01:55:21;98569.30;;;7.99;52.64
35758;BME280;21879;50.110;18.900;2023-04-22T02:05:46;98567.05;;;7.92;53.27
35758;BME280;21879;50.110;18.900;2023-04-22T02:16:12;98560.99;;;7.85;52.85
35758;BME280;21879;50.110;18.900;2023-04-22T02:26:38;98552.17;;;7.81;52.88
35758;BME280;21879;50.110;18.900;2023-04-22T02:37:13;98548.89;;;7.68;53.34
35758;BME280;21879;50.110;18.900;2023-04-22T02:47:39;98546.63;;;7.71;53.54
35758;BME280;21879;50.110;18.900;2023-04-22T02:58:05;98549.23;;;7.62;53.69
35758;BME280;21879;50.110;18.900;2023-04-22T03:08:32;98545.25;;;7.42;53.40
35758;BME280;21879;50.110;18.900;2023-04-22T03:18:58;98550.92;;;7.15;53.59
35758;BME280;21879;50.110;18.900;2023-04-22T03:29:25;98567.73;;;6.69;53.54
35758;BME280;21879;50.110;18.900;2023-04-22T03:39:50;98568.71;;;6.55;54.09
35758;BME280;21879;50.110;18.900;2023-04-22T03:50:16;98569.23;;;6.54;54.45
35758;BME280;21879;50.110;18.900;2023-04-22T04:00:42;98569.28;;;6.68;54.57
35758;BME280;21879;50.110;18.900;2023-04-22T04:11:08;98565.23;;;6.95;54.23
35758;BME280;21879;50.110;18.900;2023-04-22T04:21:35;98567.30;;;6.92;54.63
35758;BME280;21879;50.110;18.900;2023-04-22T04:32:01;98563.66;;;6.91;54.81
35758;BME280;21879;50.110;18.900;2023-04-22T04:42:28;98568.30;;;6.86;54.93
35758;BME280;21879;50.110;18.900;2023-04-22T04:52:56;98579.04;;;6.92;55.06
35758;BME280;21879;50.110;18.900;2023-04-22T05:03:22;98582.88;;;6.99;55.07
35758;BME280;21879;50.110;18.900;2023-04-22T05:13:48;98587.08;;;7.23;56.32
35758;BME280;21879;50.110;18.900;2023-04-22T05:24:14;98586.09;;;7.74;56.48
35758;BME280;21879;50.110;18.900;2023-04-22T05:34:40;98583.95;;;8.33;56.81
35758;BME280;21879;50.110;18.900;2023-04-22T05:45:07;98579.63;;;9.19;56.72
35758;BME280;21879;50.110;18.900;2023-04-22T05:55:33;98578.99;;;10.21;56.54
35758;BME280;21879;50.110;18.900;2023-04-22T06:05:59;98579.79;;;11.17;56.09
35758;BME280;21879;50.110;18.900;2023-04-22T06:16:25;98581.89;;;12.08;54.91
35758;BME280;21879;50.110;18.900;2023-04-22T06:26:51;98574.95;;;12.88;53.58
35758;BME280;21879;50.110;18.900;2023-04-22T06:37:16;98567.70;;;13.71;52.78
35758;BME280;21879;50.110;18.900;2023-04-22T06:47:42;98571.29;;;14.49;51.53
35758;BME280;21879;50.110;18.900;2023-04-22T06:58:08;98567.86;;;15.14;49.71
35758;BME280;21879;50.110;18.900;2023-04-22T07:08:35;98566.52;;;15.74;48.83
35758;BME280;21879;50.110;18.900;2023-04-22T07:19:01;98566.17;;;16.37;47.74
35758;BME280;21879;50.110;18.900;2023-04-22T07:29:28;98565.23;;;16.93;46.00
35758;BME280;21879;50.110;18.900;2023-04-22T07:39:55;98558.48;;;17.41;44.90
35758;BME280;21879;50.110;18.900;2023-04-22T07:50:20;98560.77;;;17.72;43.26
35758;BME280;21879;50.110;18.900;2023-04-22T08:00:47;98557.88;;;18.00;42.69
35758;BME280;21879;50.110;18.900;2023-04-22T08:11:13;98552.91;;;18.22;41.34
35758;BME280;21879;50.110;18.900;2023-04-22T08:21:38;98553.23;;;18.30;40.07
35758;BME280;21879;50.110;18.900;2023-04-22T08:32:05;98556.82;;;18.41;38.82
35758;BME280;21879;50.110;18.900;2023-04-22T08:42:30;98550.40;;;18.43;37.11
35758;BME280;21879;50.110;18.900;2023-04-22T08:52:57;98546.99;;;18.20;35.74
35758;BME280;21879;50.110;18.900;2023-04-22T09:03:24;98546.35;;;18.10;35.39
35758;BME280;21879;50.110;18.900;2023-04-22T09:13:50;98533.94;;;17.92;35.70
35758;BME280;21879;50.110;18.900;2023-04-22T09:24:18;98531.76;;;17.85;34.97
35758;BME280;21879;50.110;18.900;2023-04-22T09:34:52;98526.06;;;17.86;34.57
35758;BME280;21879;50.110;18.900;2023-04-22T09:45:27;98518.19;;;17.90;34.86
35758;BME280;21879;50.110;18.900;2023-04-22T09:55:54;98511.19;;;18.01;34.10
35758;BME280;21879;50.110;18.900;2023-04-22T10:06:20;98500.83;;;17.97;33.55
35758;BME280;21879;50.110;18.900;2023-04-22T10:16:47;98493.77;;;18.06;33.62
35758;BME280;21879;50.110;18.900;2023-04-22T10:27:21;98487.94;;;18.10;32.71
35758;BME280;21879;50.110;18.900;2023-04-22T10:37:47;98477.16;;;18.15;33.01
35758;BME280;21879;50.110;18.900;2023-04-22T10:48:13;98463.35;;;18.21;32.69
35758;BME280;21879;50.110;18.900;2023-04-22T10:58:39;98455.33;;;18.19;32.23
35758;BME280;21879;50.110;18.900;2023-04-22T11:09:10;98450.26;;;18.19;31.49
35758;BME280;21879;50.110;18.900;2023-04-22T11:19:37;98433.98;;;18.13;31.24
35758;BME280;21879;50.110;18.900;2023-04-22T11:30:05;98430.81;;;18.21;31.35
35758;BME280;21879;50.110;18.900;2023-04-22T11:40:33;98415.04;;;18.35;31.00
35758;BME280;21879;50.110;18.900;2023-04-22T11:51:10;98409.52;;;18.48;30.80
35758;BME280;21879;50.110;18.900;2023-04-22T12:01:36;98408.52;;;18.62;30.86
35758;BME280;21879;50.110;18.900;2023-04-22T12:12:03;98400.20;;;18.74;31.05
35758;BME280;21879;50.110;18.900;2023-04-22T12:22:30;98392.25;;;18.83;31.16
35758;BME280;21879;50.110;18.900;2023-04-22T12:32:55;98386.07;;;18.86;30.90
35758;BME280;21879;50.110;18.900;2023-04-22T12:43:21;98375.38;;;18.82;30.77
35758;BME280;21879;50.110;18.900;2023-04-22T12:53:47;98377.11;;;18.86;31.03
35758;BME280;21879;50.110;18.900;2023-04-22T13:04:13;98366.45;;;18.84;31.18
35758;BME280;21879;50.110;18.900;2023-04-22T13:14:39;98356.40;;;18.88;31.74
35758;BME280;21879;50.110;18.900;2023-04-22T13:25:07;98351.45;;;18.92;32.63
35758;BME280;21879;50.110;18.900;2023-04-22T13:35:33;98342.36;;;18.98;32.24
35758;BME280;21879;50.110;18.900;2023-04-22T13:46:00;98336.19;;;19.01;31.43
35758;BME280;21879;50.110;18.900;2023-04-22T13:56:26;98330.83;;;19.03;30.82
35758;BME280;21879;50.110;18.900;2023-04-22T14:06:52;98325.58;;;19.02;31.32
35758;BME280;21879;50.110;18.900;2023-04-22T14:17:17;98325.16;;;19.04;31.63
35758;BME280;21879;50.110;18.900;2023-04-22T14:27:45;98316.77;;;19.02;31.65
35758;BME280;21879;50.110;18.900;2023-04-22T14:38:11;98311.94;;;19.00;31.71
35758;BME280;21879;50.110;18.900;2023-04-22T14:48:37;98305.91;;;18.97;31.50
35758;BME280;21879;50.110;18.900;2023-04-22T14:59:04;98304.09;;;18.95;31.71
35758;BME280;21879;50.110;18.900;2023-04-22T15:09:30;98300.23;;;18.94;31.95
35758;BME280;21879;50.110;18.900;2023-04-22T15:19:56;98292.68;;;18.91;31.94
35758;BME280;21879;50.110;18.900;2023-04-22T15:30:22;98290.67;;;18.85;31.64
35758;BME280;21879;50.110;18.900;2023-04-22T15:40:48;98292.17;;;18.79;31.50
35758;BME280;21879;50.110;18.900;2023-04-22T15:51:14;98292.98;;;18.70;31.19
35758;BME280;21879;50.110;18.900;2023-04-22T16:01:41;98294.52;;;18.60;31.22
35758;BME280;21879;50.110;18.900;2023-04-22T16:12:09;98290.78;;;18.53;31.22
35758;BME280;21879;50.110;18.900;2023-04-22T16:22:35;98286.48;;;18.48;31.74
35758;BME280;21879;50.110;18.900;2023-04-22T16:33:01;98282.21;;;18.41;31.99
35758;BME280;21879;50.110;18.900;2023-04-22T16:43:27;98286.83;;;18.33;32.29
35758;BME280;21879;50.110;18.900;2023-04-22T16:53:53;98281.09;;;18.28;33.00
35758;BME280;21879;50.110;18.900;2023-04-22T17:04:19;98271.47;;;18.23;33.22
35758;BME280;21879;50.110;18.900;2023-04-22T17:14:48;98269.20;;;18.30;33.73
35758;BME280;21879;50.110;18.900;2023-04-22T17:25:14;98274.42;;;18.39;33.93
35758;BME280;21879;50.110;18.900;2023-04-22T17:35:40;98276.29;;;18.40;34.31
35758;BME280;21879;50.110;18.900;2023-04-22T17:46:06;98273.54;;;18.35;35.39
35758;BME280;21879;50.110;18.900;2023-04-22T18:06:59;98287.23;;;18.09;36.82
35758;BME280;21879;50.110;18.900;2023-04-22T18:17:24;98291.99;;;17.94;37.88
35758;BME280;21879;50.110;18.900;2023-04-22T18:27:51;98300.19;;;17.55;39.46
35758;BME280;21879;50.110;18.900;2023-04-22T18:38:18;98311.83;;;16.93;40.28
35758;BME280;21879;50.110;18.900;2023-04-22T18:48:44;98322.30;;;16.59;40.46
35758;BME280;21879;50.110;18.900;2023-04-22T18:59:10;98322.85;;;16.18;41.65
35758;BME280;21879;50.110;18.900;2023-04-22T19:09:36;98325.73;;;15.84;41.76
35758;BME280;21879;50.110;18.900;2023-04-22T19:20:02;98329.16;;;15.55;42.86
35758;BME280;21879;50.110;18.900;2023-04-22T19:30:29;98328.39;;;15.27;43.10
35758;BME280;21879;50.110;18.900;2023-04-22T19:40:55;98334.80;;;14.98;42.93
35758;BME280;21879;50.110;18.900;2023-04-22T19:51:21;98337.05;;;14.72;42.92
35758;BME280;21879;50.110;18.900;2023-04-22T20:01:48;98332.29;;;14.27;43.24
35758;BME280;21879;50.110;18.900;2023-04-22T20:12:14;98329.52;;;14.08;45.28
35758;BME280;21879;50.110;18.900;2023-04-22T20:22:42;98318.69;;;14.02;45.37
35758;BME280;21879;50.110;18.900;2023-04-22T20:33:09;98319.70;;;13.92;46.35
35758;BME280;21879;50.110;18.900;2023-04-22T20:43:41;98323.89;;;13.80;47.39
35758;BME280;21879;50.110;18.900;2023-04-22T20:54:07;98322.52;;;13.66;48.04
35758;BME280;21879;50.110;18.900;2023-04-22T21:04:51;98315.55;;;13.53;48.48
35758;BME280;21879;50.110;18.900;2023-04-22T21:15:18;98315.15;;;13.29;48.80
35758;BME280;21879;50.110;18.900;2023-04-22T21:25:46;98315.99;;;13.02;48.87
35758;BME280;21879;50.110;18.900;2023-04-22T21:36:13;98318.64;;;12.87;49.36
35758;BME280;21879;50.110;18.900;2023-04-22T21:46:38;98325.43;;;12.80;49.70
35758;BME280;21879;50.110;18.900;2023-04-22T21:57:04;98327.13;;;12.83;49.49
35758;BME280;21879;50.110;18.900;2023-04-22T22:07:30;98326.98;;;12.67;49.79
35758;BME280;21879;50.110;18.900;2023-04-22T22:17:57;98320.79;;;12.49;49.95
35758;BME280;21879;50.110;18.900;2023-04-22T22:28:23;98320.95;;;12.42;50.15
35758;BME280;21879;50.110;18.900;2023-04-22T22:38:48;98317.89;;;12.31;50.38
35758;BME280;21879;50.110;18.900;2023-04-22T22:49:14;98323.85;;;12.06;50.48
35758;BME280;21879;50.110;18.900;2023-04-22T22:59:40;98329.23;;;11.80;51.16
35758;BME280;21879;50.110;18.900;2023-04-22T23:10:09;98337.06;;;11.63;51.22
35758;BME280;21879;50.110;18.900;2023-04-22T23:20:35;98339.05;;;11.40;51.04
35758;BME280;21879;50.110;18.900;2023-04-22T23:31:03;98335.95;;;11.20;51.15
35758;BME280;21879;50.110;18.900;2023-04-22T23:41:30;98325.46;;;11.13;51.42
35758;BME280;21879;50.110;18.900;2023-04-22T23:51:57;98328.03;;;11.15;51.53
